Time;durP1;ratioP1;P1;durP2;ratioP2;P2;SDS_P1;SDS_P2;PMS_P1;PMS_P2;Temp;Humidity;BMP_temperature;BMP_pressure;BME280_temperature;BME280_humidity;BME280_pressure;Samples;Min_cycle;Max_cycle;Signal;HPM_P1;HPM_P2
2022/10/01 00:02:28;;;;;;;12.25;7.78;;;8.90;33.50;;;;;;7358779;19;20026;-68
2022/10/01 00:04:58;;;;;;;13.77;8.65;;;8.90;33.80;;;;;;7359356;19;20031;-68
2022/10/01 00:07:28;;;;;;;11.07;8.07;;;8.90;33.30;;;;;;7357732;19;20034;-69
2022/10/01 00:09:58;;;;;;;10.50;8.68;;;9.00;33.80;;;;;;7381754;19;20014;-69
2022/10/01 00:12:27;;;;;;;12.60;8.57;;;8.90;33.80;;;;;;7358519;19;20026;-69
2022/10/01 00:15:00;;;;;;;11.40;8.43;;;8.90;34.10;;;;;;7359667;19;20010;-69
2022/10/01 00:17:35;;;;;;;12.48;8.32;;;8.90;34.80;;;;;;7356770;19;20065;-69
2022/10/01 00:20:05;;;;;;;15.23;8.63;;;8.90;34.50;;;;;;7360430;19;20022;-69
2022/10/01 00:22:43;;;;;;;12.52;7.75;;;9.00;34.30;;;;;;7357196;19;20014;-69
2022/10/01 00:25:12;;;;;;;10.25;8.30;;;9.00;33.00;;;;;;7360917;19;20014;-69
2022/10/01 00:27:46;;;;;;;12.30;8.85;;;8.90;33.10;;;;;;7379255;19;20018;-69
2022/10/01 00:30:20;;;;;;;10.32;8.20;;;8.90;33.70;;;;;;7358082;19;20018;-69
2022/10/01 00:32:50;;;;;;;13.90;8.82;;;8.90;33.60;;;;;;7357957;19;20070;-69
2022/10/01 00:35:20;;;;;;;13.15;8.60;;;8.90;33.40;;;;;;7358782;19;20491;-69
2022/10/01 00:37:51;;;;;;;10.95;7.85;;;8.80;33.90;;;;;;7356394;19;20034;-69
2022/10/01 00:40:22;;;;;;;11.30;8.07;;;8.80;34.50;;;;;;7359139;19;20049;-69
2022/10/01 00:42:52;;;;;;;10.52;7.50;;;8.80;34.00;;;;;;7379913;19;20478;-69
2022/10/01 00:45:24;;;;;;;10.25;7.03;;;8.80;33.90;;;;;;7360112;19;20010;-69
2022/10/01 00:47:59;;;;;;;11.48;8.20;;;8.80;34.10;;;;;;7357017;19;20090;-69
2022/10/01 00:50:33;;;;;;;10.27;7.30;;;8.70;34.00;;;;;;7358074;19;20042;-69
2022/10/01 00:53:07;;;;;;;8.32;6.97;;;8.80;34.60;;;;;;7356291;19;20022;-69
2022/10/01 00:55:39;;;;;;;12.48;7.45;;;8.80;34.30;;;;;;7358866;19;20478;-69
2022/10/01 00:58:10;;;;;;;9.45;6.47;;;8.90;33.10;;;;;;7358960;19;20015;-70
2022/10/01 01:00:44;;;;;;;11.00;6.55;;;8.80;32.80;;;;;;7378432;19;20014;-69
2022/10/01 01:03:14;;;;;;;10.75;7.40;;;8.80;33.00;;;;;;7355806;19;20078;-70
2022/10/01 01:05:46;;;;;;;11.65;6.88;;;8.70;33.50;;;;;;7357586;19;20014;-69
2022/10/01 01:08:17;;;;;;;7.57;5.90;;;8.70;34.40;;;;;;7357820;19;20011;-70
2022/10/01 01:10:54;;;;;;;9.45;6.63;;;8.70;34.30;;;;;;7357332;19;20010;-69
2022/10/01 01:13:28;;;;;;;9.00;6.35;;;8.70;35.20;;;;;;7356454;19;20038;-69
2022/10/01 01:16:06;;;;;;;8.37;6.10;;;8.70;35.20;;;;;;7379875;19;20363;-69
2022/10/01 01:18:42;;;;;;;8.55;6.43;;;8.70;35.40;;;;;;7357218;19;20018;-70
2022/10/01 01:21:24;;;;;;;10.43;6.75;;;8.70;35.10;;;;;;7357730;19;20011;-69
2022/10/01 01:24:35;;;;;;;8.55;6.18;;;8.70;35.20;;;;;;7356458;19;20038;-70
2022/10/01 01:27:30;;;;;;;7.90;5.75;;;8.80;35.20;;;;;;7355949;19;20034;-69
2022/10/01 01:30:07;;;;;;;7.97;5.67;;;8.80;34.90;;;;;;7356283;19;20029;-69
2022/10/01 01:32:45;;;;;;;7.85;6.00;;;8.80;35.30;;;;;;7355846;19;20577;-70
2022/10/01 01:35:21;;;;;;;6.75;5.13;;;8.80;35.60;;;;;;7358009;19;20094;-69
2022/10/01 01:37:55;;;;;;;7.35;5.78;;;8.80;35.40;;;;;;7355015;19;20016;-70
2022/10/01 01:40:25;;;;;;;;;;;8.90;34.90;;;;;;7358424;19;20018;-70
2022/10/01 01:42:57;;;;;;;9.35;5.38;;;9.00;34.20;;;;;;7378041;19;19931;-70
2022/10/01 01:45:31;;;;;;;6.43;4.55;;;9.10;32.90;;;;;;7358558;19;20034;-69
2022/10/01 01:48:03;;;;;;;7.50;4.63;;;9.20;31.50;;;;;;7363282;19;20018;-69
2022/10/01 01:50:39;;;;;;;5.35;4.43;;;9.30;29.60;;;;;;7363516;19;20014;-70
2022/10/01 01:53:08;;;;;;;5.65;4.75;;;9.40;28.60;;;;;;7363655;19;20038;-70
2022/10/01 01:55:39;;;;;;;5.88;4.10;;;9.40;27.60;;;;;;7364525;19;20085;-69
2022/10/01 01:58:09;;;;;;;5.82;3.85;;;9.40;27.50;;;;;;7364505;19;20018;-68
2022/10/01 02:00:42;;;;;;;4.65;4.00;;;9.40;27.00;;;;;;7386645;19;20042;-68
2022/10/01 02:03:13;;;;;;;4.78;4.03;;;9.40;26.60;;;;;;7362137;19;20006;-69
2022/10/01 02:05:54;;;;;;;7.65;4.03;;;9.40;26.70;;;;;;7363171;19;20015;-69
2022/10/01 02:08:31;;;;;;;6.93;4.50;;;9.40;26.20;;;;;;7364044;19;20103;-68
2022/10/01 02:11:13;;;;;;;6.00;3.75;;;9.40;25.90;;;;;;7362438;19;20479;-68
2022/10/01 02:13:51;;;;;;;5.00;3.63;;;9.40;26.00;;;;;;7363219;19;20022;-68
2022/10/01 02:16:31;;;;;;;7.10;4.35;;;9.40;25.60;;;;;;7363694;19;20014;-69
2022/10/01 02:19:06;;;;;;;4.78;3.58;;;9.50;23.20;;;;;;7387005;19;20011;-69
2022/10/01 02:21:40;;;;;;;6.28;3.97;;;9.50;22.40;;;;;;7363222;19;20014;-69
2022/10/01 02:24:18;;;;;;;13.60;4.73;;;9.60;22.60;;;;;;7362978;19;20746;-68
2022/10/01 02:26:51;;;;;;;4.35;3.60;;;9.60;22.50;;;;;;7361521;19;20010;-69
2022/10/01 02:29:24;;;;;;;5.68;3.80;;;9.60;22.00;;;;;;7362044;19;20007;-68
2022/10/01 02:31:58;;;;;;;6.70;3.90;;;9.70;21.10;;;;;;7362442;19;20038;-69
2022/10/01 02:34:31;;;;;;;4.28;3.15;;;9.70;21.30;;;;;;7362434;19;20021;-69
2022/10/01 02:37:06;;;;;;;4.57;3.70;;;9.70;20.70;;;;;;7383053;19;20058;-68
2022/10/01 02:39:37;;;;;;;5.53;3.58;;;9.70;20.10;;;;;;7362393;19;20030;-68
2022/10/01 02:42:10;;;;;;;4.90;3.40;;;9.70;19.70;;;;;;7361238;19;20038;-68
2022/10/01 02:44:44;;;;;;;4.65;3.40;;;9.70;19.90;;;;;;7363319;19;20018;-68
2022/10/01 02:47:21;;;;;;;4.20;2.92;;;9.70;20.00;;;;;;7361969;19;20565;-68
2022/10/01 02:49:52;;;;;;;4.00;2.88;;;9.70;19.60;;;;;;7361384;19;20014;-69
2022/10/01 02:52:28;;;;;;;5.05;3.08;;;9.70;19.30;;;;;;7361034;19;20028;-68
2022/10/01 02:55:02;;;;;;;3.50;3.10;;;9.80;18.50;;;;;;7385018;19;20017;-69
2022/10/01 02:57:29;;;;;;;5.55;3.42;;;9.80;18.40;;;;;;7359657;19;20014;-68
2022/10/01 03:00:01;;;;;;;4.82;2.70;;;9.70;18.30;;;;;;7361774;19;20022;-69
2022/10/01 03:02:34;;;;;;;4.18;3.10;;;9.80;17.60;;;;;;7361378;19;20024;-69
2022/10/01 03:05:04;;;;;;;3.70;3.00;;;9.80;17.10;;;;;;7361868;19;20031;-69
2022/10/01 03:07:36;;;;;;;3.95;2.92;;;9.80;16.80;;;;;;7359488;19;20014;-69
2022/10/01 03:10:07;;;;;;;4.32;3.00;;;9.70;16.80;;;;;;7380144;19;20017;-70
2022/10/01 03:12:41;;;;;;;4.20;3.00;;;9.70;17.50;;;;;;7381041;19;20014;-68
2022/10/01 03:15:12;;;;;;;4.80;2.65;;;9.70;17.60;;;;;;7361372;19;20025;-69
2022/10/01 03:17:44;;;;;;;3.70;2.90;;;9.70;17.00;;;;;;7359189;19;20014;-68
2022/10/01 03:20:14;;;;;;;3.75;2.95;;;9.70;16.60;;;;;;7362337;19;20014;-68
2022/10/01 03:22:46;;;;;;;2.95;2.40;;;9.70;16.90;;;;;;7359903;19;20010;-69
2022/10/01 03:25:16;;;;;;;5.63;2.80;;;9.60;18.00;;;;;;7362847;19;20018;-69
2022/10/01 03:27:47;;;;;;;3.78;2.90;;;9.60;18.30;;;;;;7380876;19;20042;-69
2022/10/01 03:30:17;;;;;;;5.85;3.33;;;9.60;18.30;;;;;;7360195;19;20017;-68
2022/10/01 03:32:49;;;;;;;4.95;3.10;;;9.60;17.20;;;;;;7359141;19;20018;-68
2022/10/01 03:35:19;;;;;;;5.07;2.80;;;9.60;16.80;;;;;;7360993;19;20002;-68
2022/10/01 03:37:49;;;;;;;3.20;2.88;;;9.60;17.00;;;;;;7359057;19;20013;-69
2022/10/01 03:40:18;;;;;;;5.68;2.92;;;9.60;16.30;;;;;;7361003;19;20025;-68
2022/10/01 03:42:49;;;;;;;3.45;2.90;;;9.70;15.60;;;;;;7381379;19;20022;-68
2022/10/01 03:45:19;;;;;;;3.17;2.50;;;9.70;15.10;;;;;;7361411;19;20014;-68
2022/10/01 03:47:55;;;;;;;3.47;2.50;;;9.60;15.60;;;;;;7358444;19;20117;-69
2022/10/01 03:50:25;;;;;;;4.32;2.60;;;9.60;14.70;;;;;;7359396;19;20066;-68
2022/10/01 03:52:55;;;;;;;3.58;2.75;;;9.60;14.40;;;;;;7358339;19;20042;-68
2022/10/01 03:55:26;;;;;;;3.13;2.83;;;9.60;14.60;;;;;;7360565;19;20340;-68
2022/10/01 03:57:57;;;;;;;2.50;1.88;;;9.70;12.70;;;;;;7380515;19;20015;-68
2022/10/01 04:00:27;;;;;;;4.28;2.22;;;9.80;12.00;;;;;;7359899;19;21013;-69
2022/10/01 04:02:59;;;;;;;3.95;2.30;;;9.80;11.10;;;;;;7358347;19;20400;-69
2022/10/01 04:05:29;;;;;;;3.40;2.30;;;9.80;11.00;;;;;;7359656;19;20510;-69
2022/10/01 04:08:00;;;;;;;3.90;2.63;;;9.80;10.90;;;;;;7358270;19;20034;-70
2022/10/01 04:10:29;;;;;;;3.97;2.00;;;9.90;10.20;;;;;;7358638;19;20029;-69
2022/10/01 04:13:00;;;;;;;2.92;2.63;;;9.80;10.00;;;;;;7380180;19;20018;-69
2022/10/01 04:15:29;;;;;;;5.28;2.35;;;9.80;10.40;;;;;;7358988;19;20014;-70
2022/10/01 04:18:05;;;;;;;4.93;2.40;;;9.80;10.50;;;;;;7358021;19;20375;-69
2022/10/01 04:20:35;;;;;;;3.65;2.28;;;9.80;10.90;;;;;;7358824;19;20529;-68
2022/10/01 04:23:05;;;;;;;3.22;2.10;;;9.80;10.40;;;;;;7358129;19;20014;-68
2022/10/01 04:25:35;;;;;;;2.90;2.30;;;9.80;11.10;;;;;;7359479;19;20350;-68
2022/10/01 04:28:07;;;;;;;5.30;2.60;;;9.80;10.90;;;;;;7379915;19;20022;-69
2022/10/01 04:30:39;;;;;;;4.10;2.33;;;9.80;11.40;;;;;;7359008;19;20022;-69
2022/10/01 04:33:14;;;;;;;3.92;2.83;;;9.80;11.50;;;;;;7358046;19;20015;-70
2022/10/01 04:35:44;;;;;;;;;;;9.70;11.90;;;;;;7359232;19;20047;-70
2022/10/01 04:38:16;;;;;;;3.42;2.20;;;9.70;11.50;;;;;;7358936;19;19941;-69
2022/10/01 04:40:46;;;;;;;3.03;2.17;;;9.70;12.60;;;;;;7357814;19;20465;-70
2022/10/01 04:43:16;;;;;;;3.17;2.60;;;9.70;11.70;;;;;;7358959;19;20018;-70
2022/10/01 04:45:45;;;;;;;2.80;2.38;;;9.70;12.10;;;;;;7377888;19;20042;-70
2022/10/01 04:48:18;;;;;;;3.13;2.50;;;9.70;12.00;;;;;;7357561;19;20053;-69
2022/10/01 04:50:47;;;;;;;4.30;3.15;;;9.70;12.30;;;;;;7357613;19;20021;-69
2022/10/01 04:53:17;;;;;;;4.43;3.10;;;9.70;11.90;;;;;;7356666;19;20490;-68
2022/10/01 04:55:47;;;;;;;6.15;3.45;;;9.70;12.60;;;;;;7357668;19;20021;-68
2022/10/01 04:58:17;;;;;;;4.88;3.00;;;9.60;12.80;;;;;;7359108;19;20078;-69
2022/10/01 05:00:47;;;;;;;3.78;3.30;;;9.70;12.70;;;;;;7380331;19;20018;-69
2022/10/01 05:03:20;;;;;;;3.50;3.20;;;9.70;12.10;;;;;;7357262;19;20518;-68
2022/10/01 05:05:50;;;;;;;3.58;3.00;;;9.70;12.50;;;;;;7357809;19;20010;-69
2022/10/01 05:08:21;;;;;;;4.38;3.10;;;9.70;12.20;;;;;;7358788;19;20031;-68
2022/10/01 05:10:51;;;;;;;3.28;2.60;;;9.70;12.60;;;;;;7356752;19;20014;-68
2022/10/01 05:13:21;;;;;;;5.60;2.70;;;9.70;12.70;;;;;;7357595;19;20489;-68
2022/10/01 05:15:53;;;;;;;4.25;2.25;;;9.80;12.00;;;;;;7379217;19;20090;-69
2022/10/01 05:18:25;;;;;;;1.92;1.73;;;9.80;10.40;;;;;;7357382;19;20010;-68
2022/10/01 05:20:55;;;;;;;1.77;1.67;;;10.00;7.80;;;;;;7360363;19;20015;-68
2022/10/01 05:23:25;;;;;;;4.18;1.70;;;10.10;5.30;;;;;;7364703;19;20014;-68
2022/10/01 05:25:54;;;;;;;4.13;1.60;;;10.20;4.80;;;;;;7365294;19;20090;-69
2022/10/01 05:28:25;;;;;;;2.45;2.00;;;10.20;4.50;;;;;;7365551;19;20006;-68
2022/10/01 05:30:58;;;;;;;3.65;1.95;;;10.20;4.60;;;;;;7386179;19;20034;-68
2022/10/01 05:33:32;;;;;;;3.45;1.63;;;10.20;4.40;;;;;;7364356;19;20011;-68
2022/10/01 05:36:03;;;;;;;2.22;1.80;;;10.20;4.20;;;;;;7363739;19;20033;-68
2022/10/01 05:38:35;;;;;;;4.53;1.73;;;10.20;4.20;;;;;;7363886;19;20018;-68
2022/10/01 05:41:04;;;;;;;2.60;1.90;;;10.20;3.70;;;;;;7362287;19;20066;-69
2022/10/01 05:43:34;;;;;;;2.90;2.00;;;10.20;3.90;;;;;;7365360;19;20015;-69
2022/10/01 05:46:05;;;;;;;3.60;1.90;;;10.30;3.70;;;;;;7386960;19;20015;-68
2022/10/01 05:48:38;;;;;;;1.92;1.55;;;10.20;4.20;;;;;;7363602;19;20010;-69
2022/10/01 05:51:08;;;;;;;2.00;1.77;;;10.20;3.80;;;;;;7362149;19;20015;-69
2022/10/01 05:53:38;;;;;;;3.15;1.70;;;10.20;3.60;;;;;;7361817;19;20014;-69
2022/10/01 05:56:09;;;;;;;2.78;1.90;;;10.20;4.80;;;;;;7363347;19;20438;-69
2022/10/01 05:58:39;;;;;;;2.95;2.17;;;10.30;5.70;;;;;;7363862;19;20474;-69
2022/10/01 06:01:08;;;;;;;2.53;1.90;;;10.30;6.60;;;;;;7362646;19;20426;-69
2022/10/01 06:03:41;;;;;;;7.57;2.25;;;10.30;8.00;;;;;;7385310;19;20041;-68
2022/10/01 06:06:11;;;;;;;4.90;1.95;;;10.20;8.80;;;;;;7362317;19;20501;-69
2022/10/01 06:08:44;;;;;;;4.20;2.05;;;10.20;10.40;;;;;;7362797;19;20498;-69
2022/10/01 06:11:14;;;;;;;2.33;1.88;;;10.10;10.90;;;;;;7361948;19;20006;-70
2022/10/01 06:13:44;;;;;;;4.68;2.45;;;10.10;13.10;;;;;;7361066;19;20042;-70
2022/10/01 06:16:13;;;;;;;3.10;2.13;;;10.10;14.40;;;;;;7361854;19;20010;-69
2022/10/01 06:18:48;;;;;;;3.17;2.08;;;10.00;14.80;;;;;;7383642;19;20082;-69
2022/10/01 06:21:18;;;;;;;3.55;2.30;;;10.00;15.50;;;;;;7358978;19;20340;-69
2022/10/01 06:23:49;;;;;;;2.70;2.47;;;10.00;18.30;;;;;;7360080;19;20011;-69
2022/10/01 06:26:19;;;;;;;2.90;2.60;;;9.90;18.80;;;;;;7359977;19;20015;-69
2022/10/01 06:28:51;;;;;;;4.97;2.80;;;9.90;19.50;;;;;;7360108;19;20015;-69
2022/10/01 06:31:21;;;;;;;4.53;2.78;;;9.90;19.30;;;;;;7359464;19;20861;-70
2022/10/01 06:33:54;;;;;;;4.25;3.17;;;9.90;19.40;;;;;;7382076;19;20014;-69
2022/10/01 06:36:23;;;;;;;8.07;3.45;;;9.90;18.70;;;;;;7359023;19;20273;-70
2022/10/01 06:38:53;;;;;;;3.95;2.70;;;9.90;20.20;;;;;;7358684;19;20023;-70
2022/10/01 06:41:23;;;;;;;4.90;3.47;;;9.80;21.50;;;;;;7358915;19;20038;-69
2022/10/01 06:43:53;;;;;;;7.50;3.22;;;9.80;21.70;;;;;;7360670;19;20050;-69
2022/10/01 06:46:23;;;;;;;7.03;3.90;;;9.80;22.60;;;;;;7359973;19;20015;-70
2022/10/01 06:48:55;;;;;;;5.90;3.42;;;9.90;21.50;;;;;;7382415;19;20018;-70
2022/10/01 06:52:47;;;;;;;4.53;3.33;;;9.90;21.00;;;;;;7358439;19;20838;-69
2022/10/01 06:54:22;;;;;;;7.15;3.53;;;10.00;21.80;;;;;;7358465;19;20031;-69
2022/10/01 06:56:52;;;;;;;5.43;3.75;;;9.90;24.20;;;;;;7356433;19;20029;-69
2022/10/01 06:59:22;;;;;;;4.72;3.15;;;9.90;24.00;;;;;;7359168;19;20102;-70
2022/10/01 07:01:52;;;;;;;5.38;3.85;;;9.90;25.10;;;;;;7356743;19;20011;-69
2022/10/01 07:04:27;;;;;;;5.68;3.90;;;9.90;24.60;;;;;;7359554;19;20013;-67
2022/10/01 07:06:58;;;;;;;7.82;4.72;;;9.90;25.90;;;;;;7379387;19;20356;-68
2022/10/01 07:09:28;;;;;;;5.07;3.70;;;10.00;26.00;;;;;;7359244;19;20006;-69
2022/10/01 07:11:58;;;;;;;4.88;3.92;;;9.90;26.10;;;;;;7357496;19;20011;-70
2022/10/01 07:14:27;;;;;;;7.90;3.92;;;9.90;26.00;;;;;;7219728;19;2749297;-68
2022/10/01 07:16:57;;;;;;;6.35;3.90;;;9.90;26.00;;;;;;7359556;19;20517;-68
2022/10/01 07:19:30;;;;;;;5.13;3.58;;;9.90;28.00;;;;;;7361920;19;20004;-69
2022/10/01 07:22:00;;;;;;;6.90;3.38;;;9.90;28.70;;;;;;7383042;19;20019;-70
2022/10/01 07:24:30;;;;;;;7.78;3.95;;;9.90;29.60;;;;;;7361127;19;20034;-69
2022/10/01 07:26:59;;;;;;;8.95;4.18;;;9.90;29.50;;;;;;7359289;19;20006;-69
2022/10/01 07:29:36;;;;;;;8.05;4.00;;;9.80;31.80;;;;;;7359651;19;20011;-69
2022/10/01 07:32:07;;;;;;;5.97;3.83;;;9.80;33.40;;;;;;7360938;19;20014;-70
2022/10/01 07:34:41;;;;;;;4.70;3.72;;;9.80;34.20;;;;;;7358909;19;20010;-69
2022/10/01 07:37:12;;;;;;;5.77;3.57;;;9.70;35.00;;;;;;7358129;19;20804;-69
2022/10/01 07:39:41;;;;;;;7.55;4.40;;;9.80;35.80;;;;;;7380927;19;20043;-70
2022/10/01 07:42:11;;;;;;;5.97;4.38;;;9.70;35.60;;;;;;7359003;19;20014;-68
2022/10/01 07:44:42;;;;;;;7.10;4.72;;;9.80;36.80;;;;;;7359413;19;20014;-68
2022/10/01 07:47:12;;;;;;;4.95;3.63;;;9.70;36.90;;;;;;7359139;19;20002;-70
2022/10/01 07:49:44;;;;;;;6.93;4.68;;;9.80;37.70;;;;;;7359918;19;20493;-68
2022/10/01 07:52:14;;;;;;;5.85;3.20;;;9.80;37.80;;;;;;7360176;19;20014;-68
2022/10/01 07:54:43;;;;;;;5.88;3.33;;;9.80;37.00;;;;;;7381483;19;20031;-69
2022/10/01 07:57:14;;;;;;;5.20;3.20;;;9.80;36.00;;;;;;7357719;19;20014;-68
2022/10/01 07:59:43;;;;;;;10.70;2.72;;;9.90;36.30;;;;;;7359236;19;20011;-69
2022/10/01 08:02:16;;;;;;;6.25;2.53;;;9.90;35.30;;;;;;7359163;19;20007;-70
2022/10/01 08:07:31;;;;;;;;;;;9.90;36.50;;;;;;7358306;19;20454;-69
2022/10/01 08:10:03;;;;;;;4.35;2.83;;;10.00;36.90;;;;;;7381451;19;19919;-69
2022/10/01 08:12:33;;;;;;;4.68;3.00;;;10.00;37.90;;;;;;7358155;19;20015;-69
2022/10/01 08:15:05;;;;;;;5.03;2.58;;;10.00;38.50;;;;;;7358385;19;20014;-69
2022/10/01 08:17:36;;;;;;;3.58;2.90;;;10.00;37.30;;;;;;7357119;19;20126;-69
2022/10/01 08:20:11;;;;;;;4.95;3.13;;;10.00;37.60;;;;;;7359784;19;20748;-69
2022/10/01 08:22:41;;;;;;;5.53;3.50;;;10.00;37.10;;;;;;7357192;19;20139;-70
2022/10/01 08:25:11;;;;;;;3.78;2.95;;;10.00;37.90;;;;;;7360530;19;20343;-70
2022/10/01 08:27:41;;;;;;;7.70;3.60;;;10.00;38.70;;;;;;7378170;19;20047;-70
2022/10/01 08:30:12;;;;;;;6.05;4.28;;;10.10;40.10;;;;;;7356130;19;20034;-70
2022/10/01 08:32:41;;;;;;;5.82;4.32;;;10.10;39.50;;;;;;7357569;19;20066;-68
2022/10/01 08:35:14;;;;;;;5.15;3.60;;;10.10;38.60;;;;;;7358449;19;20030;-70
2022/10/01 08:37:45;;;;;;;3.40;2.80;;;10.20;38.60;;;;;;7355809;19;20184;-70
2022/10/01 08:40:14;;;;;;;4.03;3.22;;;10.20;39.30;;;;;;7359044;19;20014;-70
2022/10/01 08:42:55;;;;;;;5.05;2.90;;;10.20;40.50;;;;;;7379570;19;20026;-70
2022/10/01 08:45:28;;;;;;;4.55;3.58;;;10.20;40.80;;;;;;7359696;19;20011;-70
2022/10/01 08:48:08;;;;;;;4.67;2.93;;;10.20;41.60;;;;;;7356761;19;20025;-70
2022/10/01 08:50:48;;;;;;;4.25;2.60;;;10.20;42.00;;;;;;7356948;19;20018;-70
2022/10/01 08:53:30;;;;;;;5.10;2.78;;;10.20;42.90;;;;;;7358402;19;20006;-70
2022/10/01 08:56:01;;;;;;;4.53;2.90;;;10.30;44.70;;;;;;7356206;19;20026;-69
2022/10/01 08:58:39;;;;;;;6.10;2.97;;;10.30;45.40;;;;;;7356928;19;20014;-69
2022/10/01 09:01:12;;;;;;;3.75;2.85;;;10.30;45.70;;;;;;7357587;19;20021;-69
2022/10/01 09:03:42;;;;;;;3.10;2.70;;;10.30;45.70;;;;;;7379915;19;20676;-69
2022/10/01 09:06:21;;;;;;;3.28;2.75;;;10.30;47.30;;;;;;7356458;19;20007;-69
2022/10/01 09:09:22;;;;;;;3.72;2.92;;;10.40;47.30;;;;;;7357249;19;20023;-69
2022/10/01 09:12:06;;;;;;;3.67;2.70;;;10.40;47.10;;;;;;7356195;19;20011;-70
2022/10/01 09:14:52;;;;;;;3.60;3.03;;;10.50;48.00;;;;;;7356989;19;20037;-70
2022/10/01 09:17:34;;;;;;;3.45;3.10;;;10.50;48.90;;;;;;7356553;19;20011;-70
2022/10/01 09:20:18;;;;;;;3.38;2.95;;;10.60;50.00;;;;;;7357975;19;20496;-70
2022/10/01 09:23:11;;;;;;;3.42;2.50;;;10.70;50.10;;;;;;7356258;19;20143;-70
2022/10/01 09:25:41;;;;;;;7.00;2.88;;;10.70;50.70;;;;;;7356163;19;20521;-69
2022/10/01 09:28:16;;;;;;;4.40;2.22;;;10.80;50.20;;;;;;7355725;19;20046;-71
2022/10/01 09:30:53;;;;;;;3.05;2.17;;;10.90;49.90;;;;;;7377962;19;20046;-70
2022/10/01 09:33:24;;;;;;;4.30;2.45;;;10.90;50.30;;;;;;7357502;19;20019;-70
2022/10/01 09:36:02;;;;;;;2.92;2.17;;;10.90;50.30;;;;;;7355232;19;20447;-70
2022/10/01 09:38:40;;;;;;;4.07;2.70;;;10.90;50.40;;;;;;7356009;19;20010;-70
2022/10/01 09:41:11;;;;;;;2.58;1.92;;;11.00;51.40;;;;;;7356055;19;20474;-69
2022/10/01 09:43:43;;;;;;;3.20;2.17;;;10.90;50.80;;;;;;7357486;19;20498;-71
2022/10/01 09:46:18;;;;;;;3.03;2.03;;;11.00;51.00;;;;;;7356730;19;20578;-69
2022/10/01 09:48:57;;;;;;;2.90;1.73;;;11.00;49.20;;;;;;7378157;19;20466;-69
2022/10/01 09:51:32;;;;;;;3.60;1.50;;;11.10;49.60;;;;;;7354526;19;20845;-70
2022/10/01 09:54:17;;;;;;;5.07;1.95;;;11.10;48.50;;;;;;7356111;19;20014;-70
2022/10/01 09:56:51;;;;;;;3.60;1.85;;;11.10;49.70;;;;;;7352705;19;20042;-70
2022/10/01 09:59:28;;;;;;;2.80;1.70;;;11.10;48.80;;;;;;7356772;19;20007;-70
2022/10/01 10:02:01;;;;;;;4.45;2.53;;;11.10;50.00;;;;;;7354835;19;20356;-70
2022/10/01 10:04:31;;;;;;;2.92;2.00;;;11.10;50.40;;;;;;7355836;19;20015;-71
2022/10/01 10:07:03;;;;;;;3.40;2.20;;;11.10;50.40;;;;;;7379104;19;20032;-70
2022/10/01 10:09:37;;;;;;;2.72;2.00;;;11.10;50.90;;;;;;7362837;19;20017;-70
2022/10/01 10:12:09;;;;;;;3.63;2.28;;;11.10;50.90;;;;;;7360138;19;20021;-69
2022/10/01 10:14:40;;;;;;;2.58;1.42;;;11.10;51.10;;;;;;7362775;19;20010;-70
2022/10/01 10:17:16;;;;;;;2.78;1.63;;;11.10;51.60;;;;;;7360013;19;20014;-71
2022/10/01 10:19:50;;;;;;;3.00;1.50;;;11.10;50.60;;;;;;7361193;19;20386;-69
2022/10/01 10:22:24;;;;;;;2.75;1.73;;;11.10;50.80;;;;;;7359861;19;20489;-69
2022/10/01 10:25:02;;;;;;;1.85;1.30;;;11.10;50.60;;;;;;7384068;19;20491;-70
2022/10/01 10:27:32;;;;;;;5.05;1.73;;;11.20;50.70;;;;;;7360510;19;20014;-70
2022/10/01 10:30:08;;;;;;;3.20;1.65;;;11.20;50.30;;;;;;7360891;19;20007;-70
2022/10/01 10:32:38;;;;;;;3.40;1.63;;;11.20;49.50;;;;;;7361444;19;20069;-70
2022/10/01 10:35:12;;;;;;;2.08;1.63;;;11.30;49.50;;;;;;7362988;19;20025;-70
2022/10/01 10:37:50;;;;;;;1.52;1.25;;;11.40;48.90;;;;;;7359115;19;20014;-70
2022/10/01 10:40:24;;;;;;;1.83;1.38;;;11.40;46.60;;;;;;7361386;19;20018;-70
2022/10/01 10:43:00;;;;;;;2.03;1.30;;;11.50;46.20;;;;;;7384212;19;20848;-70
2022/10/01 10:45:35;;;;;;;1.55;1.38;;;11.60;42.60;;;;;;7364035;19;20020;-70
2022/10/01 10:48:09;;;;;;;2.03;1.52;;;11.70;43.80;;;;;;7360211;19;20022;-69
2022/10/01 10:50:42;;;;;;;3.85;1.27;;;11.80;42.60;;;;;;7360360;19;20011;-69
2022/10/01 10:53:21;;;;;;;2.78;1.48;;;11.90;41.30;;;;;;7362770;19;20007;-69
2022/10/01 10:56:02;;;;;;;2.67;1.58;;;12.00;40.70;;;;;;7360306;19;20017;-70
2022/10/01 10:58:36;;;;;;;1.52;1.30;;;12.10;40.40;;;;;;7360850;19;20047;-70
2022/10/01 11:01:10;;;;;;;1.10;1.00;;;12.00;39.00;;;;;;7381764;19;20022;-73
2022/10/01 11:03:45;;;;;;;1.75;1.20;;;12.00;37.60;;;;;;7382662;19;20031;-69
2022/10/01 11:06:17;;;;;;;2.28;1.10;;;12.00;38.00;;;;;;7359942;19;20014;-70
2022/10/01 11:08:56;;;;;;;1.60;1.10;;;12.00;37.40;;;;;;7360927;19;20019;-70
2022/10/01 11:11:44;;;;;;;1.95;1.23;;;12.10;38.40;;;;;;7359419;19;20010;-70
2022/10/01 11:14:26;;;;;;;1.85;1.30;;;12.20;38.60;;;;;;7361290;19;20018;-71
2022/10/01 11:17:13;;;;;;;2.45;1.00;;;12.30;37.10;;;;;;7358519;19;20431;-70
2022/10/01 11:19:57;;;;;;;1.90;1.48;;;12.30;33.50;;;;;;7356541;19;20011;-70
2022/10/01 11:22:41;;;;;;;2.08;1.40;;;12.40;34.90;;;;;;7359843;19;20077;-69
2022/10/01 11:25:24;;;;;;;1.27;1.13;;;12.40;35.60;;;;;;7361497;19;20011;-70
2022/10/01 11:28:07;;;;;;;2.45;1.02;;;12.40;34.90;;;;;;7381332;19;20034;-69
2022/10/01 11:30:48;;;;;;;2.40;1.02;;;12.30;33.30;;;;;;7359177;19;20502;-69
2022/10/01 11:33:28;;;;;;;1.17;0.80;;;12.30;32.80;;;;;;7360234;19;20142;-69
2022/10/01 11:36:03;;;;;;;0.88;0.68;;;12.30;33.50;;;;;;7359023;19;20034;-69
2022/10/01 11:38:40;;;;;;;;;;;12.30;34.20;;;;;;7360238;19;20459;-69
2022/10/01 11:41:20;;;;;;;1.80;0.80;;;12.30;32.20;;;;;;7358643;19;19966;-70
2022/10/01 11:43:54;;;;;;;2.35;1.02;;;12.30;31.30;;;;;;7361573;19;20011;-69
2022/10/01 11:46:36;;;;;;;1.00;0.70;;;12.30;31.80;;;;;;7358681;19;20018;-70
2022/10/01 11:49:26;;;;;;;1.27;0.70;;;12.30;31.80;;;;;;7370373;19;20026;-71
2022/10/01 11:52:05;;;;;;;0.80;0.70;;;12.40;32.00;;;;;;7382390;19;20014;-69
2022/10/01 11:54:37;;;;;;;2.28;0.93;;;12.30;31.90;;;;;;7360495;19;20010;-69
2022/10/01 12:00:07;;;;;;;1.33;0.60;;;12.30;33.20;;;;;;7359057;19;20062;-69
2022/10/01 12:02:47;;;;;;;1.25;0.80;;;12.40;32.80;;;;;;7356283;19;20054;-70
2022/10/01 12:05:20;;;;;;;1.30;0.77;;;12.40;32.00;;;;;;7359071;19;20150;-69
2022/10/01 12:07:56;;;;;;;0.80;0.80;;;12.40;32.00;;;;;;7357850;19;20006;-69
2022/10/01 12:10:38;;;;;;;2.03;0.47;;;12.40;30.40;;;;;;7357124;19;20058;-70
2022/10/01 12:13:15;;;;;;;0.90;0.60;;;12.50;29.50;;;;;;7367615;19;20010;-69
2022/10/01 12:15:53;;;;;;;0.77;0.57;;;12.50;31.30;;;;;;7379222;19;20018;-68
2022/10/01 12:18:29;;;;;;;0.85;0.60;;;12.60;29.80;;;;;;7355904;19;20093;-68
2022/10/01 12:21:02;;;;;;;1.75;0.70;;;12.60;30.80;;;;;;7357480;19;20042;-68
2022/10/01 12:23:37;;;;;;;1.20;0.73;;;12.70;30.80;;;;;;7360273;19;20021;-68
2022/10/01 12:26:14;;;;;;;1.40;0.50;;;12.70;29.70;;;;;;7359104;19;20018;-68
2022/10/01 12:28:53;;;;;;;1.75;0.70;;;12.80;28.80;;;;;;7358007;19;20660;-70
2022/10/01 12:31:38;;;;;;;0.70;0.60;;;12.90;26.90;;;;;;7357323;19;20112;-68
2022/10/01 12:34:17;;;;;;;1.67;1.00;;;13.00;27.10;;;;;;7363863;19;20011;-70
2022/10/01 12:36:54;;;;;;;1.38;0.90;;;13.10;26.20;;;;;;7380681;19;20019;-69
2022/10/01 12:39:38;;;;;;;1.25;0.70;;;13.10;26.60;;;;;;7357727;19;20019;-69
2022/10/01 12:42:28;;;;;;;1.33;0.80;;;13.10;24.20;;;;;;7357103;19;20037;-69
2022/10/01 12:45:11;;;;;;;0.68;0.60;;;13.20;25.70;;;;;;7358635;19;20021;-69
2022/10/01 12:47:52;;;;;;;1.00;0.60;;;13.20;24.80;;;;;;7356022;19;20018;-70
2022/10/01 12:50:32;;;;;;;1.10;0.75;;;13.20;24.20;;;;;;7357018;19;20010;-69
2022/10/01 12:53:18;;;;;;;1.27;0.70;;;13.20;23.20;;;;;;7357049;19;20010;-70
2022/10/01 12:56:06;;;;;;;1.35;0.80;;;13.30;23.10;;;;;;7356649;19;20014;-70
2022/10/01 12:58:55;;;;;;;1.83;0.70;;;13.30;22.30;;;;;;7355243;19;20042;-68
2022/10/01 13:01:35;;;;;;;0.93;0.70;;;13.40;23.00;;;;;;7355595;19;20049;-71
2022/10/01 13:04:34;;;;;;;2.33;0.90;;;13.40;22.60;;;;;;7380244;19;20017;-70
2022/10/01 13:07:20;;;;;;;1.80;0.60;;;13.50;22.40;;;;;;7254917;19;2004130;-69
2022/10/01 13:10:00;;;;;;;1.77;0.82;;;13.50;22.10;;;;;;7382460;19;20022;-70
2022/10/01 13:12:49;;;;;;;1.73;1.00;;;13.60;20.00;;;;;;7357446;19;20106;-69
2022/10/01 13:15:22;;;;;;;0.88;0.65;;;13.60;20.10;;;;;;7357398;19;20015;-68
2022/10/01 13:17:58;;;;;;;1.17;0.60;;;13.60;21.70;;;;;;7353550;19;20125;-69
2022/10/01 13:20:39;;;;;;;0.98;0.68;;;13.60;20.40;;;;;;7356477;19;20015;-70
2022/10/01 13:23:18;;;;;;;1.25;0.70;;;13.70;22.10;;;;;;7357189;19;20470;-70
2022/10/01 13:26:01;;;;;;;1.45;0.70;;;13.80;21.20;;;;;;7357675;19;20034;-70
2022/10/01 13:28:49;;;;;;;2.15;0.75;;;13.90;21.10;;;;;;7357529;19;20391;-70
2022/10/01 13:31:20;;;;;;;1.25;0.80;;;14.00;21.20;;;;;;7355967;19;20018;-69
2022/10/01 13:33:57;;;;;;;2.00;0.60;;;14.30;19.90;;;;;;7379767;19;20024;-70
2022/10/01 13:36:36;;;;;;;1.00;0.70;;;14.40;18.00;;;;;;7354603;19;20031;-69